Terminal Aerodrome Forecast
Issued by NWS Central Illinois

Home | Current Version | Previous Version | Text Only | Print | Product List | Glossary On
Versions: 1 2 3 4 5 6 7 8 9 10 11 12 13 14 15 16 17 18 19 20 21
160
FTUS43 KILX 252340
TAFSPI
TAF
KSPI 252340Z 2600/2624 31010KT P6SM SCT250
     FM260800 18008KT P6SM BKN120
     FM261500 20014G24KT P6SM BKN120=

USA.gov is the U.S. government's official web portal to all federal, state and local government web resources and services.